Terminal Aerodrome Forecast
Issued by NWS Wilmington, OH

Current Version | Previous Version | Graphics & Text | Print | Product List | Glossary On
Versions: 1 2 3 4 5 6 7 8 9 10 11 12 13 14 15 16 17 18 19 20 21 22 23 24 25
000
FTUS41 KILN 251700
TAFCVG
TAF
KCVG 251740Z 2518/2624 13006KT P6SM VCSH SCT025 OVC060
      TEMPO 2521/2523 4SM -RA BR SCT015 OVC025
     FM252300 06007KT 3SM -RA OVC012
      TEMPO 2603/2605 01011G21KT 1SM -SNRA OVC008
     FM260500 36015G22KT 3SM -SN OVC025
      TEMPO 2605/2608 P6SM NSW OVC015
     FM260800 34012KT P6SM OVC015
     FM261700 32010KT P6SM SCT018 BKN250
     FM262200 34005KT P6SM OVC100=

USA.gov is the U.S. government's official web portal to all federal, state and local government web resources and services.